Madera, Pennsylvania
Current Conditions -  °F | °C
As of 11:54 AM on Saturday 20 Dec 2014 (Local Time) from KFIG Reporting Station
Overcast Overcast  
Wind Chill: 26°   Ceiling: 1700
Heat Index: 26°   Visibility: 10mi
Dew Point: 18°   Wind: 3mph
Humidity: 71%   Direction: 100°E
Pressure: 30.22"   Gusts: NA
Location:  40.83°N, 78.43°W
Report Text: KFIG 201654Z AUTO 10003KT 10SM OVC017 M03/M08 A3022 RMK AO2 SLP254 T10331078
Loading
Personal Weather Stations






























Interactive Weather Map New forecast layout! Learn more

10-Day Weather Forecast

Advertisements
Track Severe Weather on mobile